Time;durP1;ratioP1;P1;durP2;ratioP2;P2;SDS_P1;SDS_P2;PMS_P1;PMS_P2;Temp;Humidity;BMP_temperature;BMP_pressure;BME280_temperature;BME280_humidity;BME280_pressure;Samples;Min_cycle;Max_cycle;Signal;HPM_P1;HPM_P2
2021/12/21 00:00:31;;;;;;;21.50;13.00;;;-0.30;99.90;;;;;;5075127;28;20082;-72
2021/12/21 00:02:57;;;;;;;24.02;13.82;;;-0.40;99.90;;;;;;5092113;28;20066;-72
2021/12/21 00:05:28;;;;;;;26.23;13.95;;;-0.40;99.90;;;;;;5092542;28;20487;-71
2021/12/21 00:07:55;;;;;;;22.52;12.65;;;-0.40;99.90;;;;;;5064062;28;20040;-72
2021/12/21 00:10:23;;;;;;;27.70;15.82;;;-0.40;99.90;;;;;;5058966;28;20032;-73
2021/12/21 00:15:35;;;;;;;26.08;14.90;;;-0.30;99.90;;;;;;5092370;28;20048;-73
2021/12/21 00:26:13;;;;;;;35.25;17.20;;;-0.60;99.90;;;;;;5092046;28;20087;-72
2021/12/21 00:31:12;;;;;;;34.55;15.38;;;-0.60;99.90;;;;;;5091233;28;20369;-73
2021/12/21 00:33:40;;;;;;;27.25;14.88;;;-0.60;99.90;;;;;;5090859;28;20040;-73
2021/12/21 00:36:07;;;;;;;27.95;14.13;;;-0.80;99.90;;;;;;5075019;28;20040;-73
2021/12/21 00:38:34;;;;;;;24.63;15.50;;;-0.60;99.90;;;;;;5091927;28;20103;-73
2021/12/21 00:41:00;;;;;;;27.58;14.38;;;-0.60;99.90;;;;;;5074099;28;20048;-72
2021/12/21 00:43:26;;;;;;;25.52;14.02;;;-0.50;99.90;;;;;;5091908;28;20043;-73
2021/12/21 00:45:52;;;;;;;26.10;14.65;;;-0.60;99.90;;;;;;5089425;28;20118;-73
2021/12/21 00:48:18;;;;;;;29.95;15.35;;;-0.70;99.90;;;;;;5066406;28;20123;-73
2021/12/21 00:50:44;;;;;;;29.42;14.43;;;-0.60;99.90;;;;;;5075108;28;20119;-73
2021/12/21 00:53:12;;;;;;;28.98;14.23;;;-0.60;99.90;;;;;;5091559;28;20492;-73
2021/12/21 00:55:37;;;;;;;24.77;13.43;;;-0.70;99.90;;;;;;5074011;28;20130;-72
2021/12/21 00:58:03;;;;;;;27.05;13.77;;;-0.70;99.90;;;;;;5091700;28;20127;-73
2021/12/21 01:00:29;;;;;;;24.00;14.00;;;-0.70;99.90;;;;;;5091050;28;20485;-73
2021/12/21 01:02:57;;;;;;;33.60;14.57;;;-0.80;99.90;;;;;;5089908;28;20077;-73
2021/12/21 01:05:31;;;;;;;28.48;14.60;;;;;;;;;;5074634;28;20047;-73
2021/12/21 01:07:59;;;;;;;32.45;16.48;;;-0.80;99.90;;;;;;5091748;28;20456;-73
2021/12/21 01:10:48;;;;;;;27.40;16.90;;;-0.60;99.90;;;;;;5090272;28;20079;-73
2021/12/21 01:13:27;;;;;;;;;;;-0.70;99.90;;;;;;5091690;28;20485;-73
2021/12/21 01:18:54;;;;;;;;;;;-0.70;99.90;;;;;;5091884;28;20105;-73
2021/12/21 01:21:23;;;;;;;30.80;15.70;;;-0.80;99.90;;;;;;5091017;28;19916;-73
2021/12/21 01:26:28;;;;;;;31.15;15.23;;;-0.90;99.90;;;;;;5091099;28;20523;-72
2021/12/21 01:29:12;;;;;;;29.45;14.25;;;-0.90;99.90;;;;;;5074073;28;20556;-73
2021/12/21 01:31:57;;;;;;;28.02;15.50;;;-0.90;99.90;;;;;;5070236;28;20051;-72
2021/12/21 01:34:36;;;;;;;30.38;14.43;;;-0.90;99.90;;;;;;5058453;28;20484;-73
2021/12/21 01:37:09;;;;;;;34.47;14.38;;;-0.90;99.90;;;;;;5073153;28;20036;-72
2021/12/21 01:42:24;;;;;;;28.42;14.38;;;-0.90;99.90;;;;;;5090783;28;20483;-73
2021/12/21 01:50:00;;;;;;;27.50;14.05;;;-0.90;99.90;;;;;;5082715;28;20040;-73
2021/12/21 01:52:28;;;;;;;25.08;14.18;;;-1.00;99.90;;;;;;5073085;28;20404;-72
2021/12/21 01:54:54;;;;;;;27.17;13.80;;;-1.30;99.90;;;;;;5073903;28;20071;-72
2021/12/21 01:57:21;;;;;;;22.98;12.13;;;-1.00;99.90;;;;;;5090691;28;20042;-73
2021/12/21 01:59:48;;;;;;;22.25;12.80;;;-0.90;99.90;;;;;;5073221;28;20074;-73
2021/12/21 02:02:17;;;;;;;23.90;12.55;;;-0.90;99.90;;;;;;5090036;28;20047;-73
2021/12/21 02:04:43;;;;;;;30.27;14.43;;;-1.10;99.90;;;;;;5090373;28;20070;-73
2021/12/21 02:07:10;;;;;;;28.13;13.20;;;-0.90;99.90;;;;;;5089714;28;20036;-73
2021/12/21 02:09:39;;;;;;;26.55;13.57;;;-0.90;99.90;;;;;;5090897;28;20032;-73
2021/12/21 02:12:08;;;;;;;22.15;12.98;;;-0.90;99.90;;;;;;5082057;28;20603;-73
2021/12/21 02:14:35;;;;;;;23.63;12.80;;;-0.80;99.90;;;;;;5070593;28;20105;-72
2021/12/21 02:18:08;;;;;;;24.08;13.00;;;-1.00;99.90;;;;;;5070247;28;20056;-73
2021/12/21 02:20:21;;;;;;;23.60;13.07;;;-1.00;99.90;;;;;;5068500;28;20048;-72
2021/12/21 02:22:54;;;;;;;23.88;11.40;;;-1.00;99.90;;;;;;5072367;28;20442;-73
2021/12/21 02:30:35;;;;;;;19.30;11.10;;;-1.00;99.90;;;;;;5073265;28;20521;-73
2021/12/21 02:33:01;;;;;;;23.25;12.02;;;-1.00;99.90;;;;;;5090203;28;20055;-73
2021/12/21 02:35:27;;;;;;;23.98;12.25;;;-1.00;99.90;;;;;;5089328;28;20044;-72
2021/12/21 02:37:52;;;;;;;19.73;11.60;;;-1.10;99.90;;;;;;5090598;28;20504;-72
2021/12/21 02:40:18;;;;;;;25.23;11.95;;;-1.10;99.90;;;;;;5089558;28;20500;-72
2021/12/21 02:42:44;;;;;;;19.10;11.30;;;-1.10;99.90;;;;;;5090445;28;20047;-73
2021/12/21 02:45:11;;;;;;;19.50;11.48;;;-1.30;99.90;;;;;;5088124;28;20044;-72
2021/12/21 02:47:37;;;;;;;19.42;10.43;;;;;;;;;;5071765;28;20366;-73
2021/12/21 02:50:03;;;;;;;18.45;9.90;;;-0.90;99.90;;;;;;5090236;28;20046;-72
2021/12/21 02:52:29;;;;;;;17.00;9.40;;;;;;;;;;5077878;28;20102;-72
2021/12/21 02:54:55;;;;;;;18.23;9.50;;;-0.90;99.90;;;;;;5071506;28;20056;-72
2021/12/21 02:57:21;;;;;;;17.90;10.38;;;-0.90;99.90;;;;;;5073943;28;20043;-72
2021/12/21 02:59:47;;;;;;;17.52;11.27;;;-1.20;99.90;;;;;;5073473;28;20512;-75
2021/12/21 03:02:12;;;;;;;17.33;10.02;;;-1.30;99.90;;;;;;5092357;28;20097;-75
2021/12/21 03:04:43;;;;;;;17.73;10.60;;;-1.40;99.90;;;;;;5076890;28;20036;-75
2021/12/21 03:09:58;;;;;;;16.65;9.13;;;;;;;;;;5092976;28;20055;-75
2021/12/21 03:14:51;;;;;;;16.33;10.00;;;;;;;;;;5092336;28;20084;-75
2021/12/21 03:17:17;;;;;;;18.88;9.13;;;;;;;;;;5092984;28;20426;-75
2021/12/21 03:19:43;;;;;;;16.00;9.95;;;;;;;;;;5093604;28;20040;-75
2021/12/21 03:22:10;;;;;;;15.65;9.75;;;;;;;;;;5093068;28;20082;-75
2021/12/21 03:24:36;;;;;;;14.93;8.43;;;;;;;;;;5092517;28;20508;-75
2021/12/21 03:27:02;;;;;;;17.30;9.32;;;;;;;;;;5076367;28;20043;-72
2021/12/21 03:29:29;;;;;;;17.05;8.88;;;;;;;;;;5092188;28;20088;-72
2021/12/21 03:31:55;;;;;;;15.02;9.10;;;;;;;;;;5076513;28;20048;-72
2021/12/21 03:34:21;;;;;;;16.35;9.63;;;;;;;;;;5093124;28;20050;-72
2021/12/21 03:36:47;;;;;;;17.52;8.90;;;;;;;;;;5091553;28;20040;-72
2021/12/21 03:39:18;;;;;;;16.75;9.23;;;;;;;;;;5093197;28;20047;-72
2021/12/21 03:41:47;;;;;;;18.60;9.18;;;;;;;;;;5076449;28;20044;-72
2021/12/21 03:44:14;;;;;;;17.60;9.05;;;;;;;;;;5075298;28;20177;-72
2021/12/21 03:46:46;;;;;;;15.75;9.52;;;;;;;;;;5066737;28;20469;-72
2021/12/21 03:50:01;;;;;;;19.42;9.27;;;;;;;;;;5106359;28;20043;-72
2021/12/21 03:51:59;;;;;;;14.05;7.80;;;;;;;;;;5064753;28;20049;-71
2021/12/21 03:54:26;;;;;;;19.17;9.95;;;;;;;;;;5106358;28;20528;-71
2021/12/21 03:56:52;;;;;;;19.33;9.02;;;;;;;;;;5106476;28;20036;-72
2021/12/21 03:59:19;;;;;;;18.35;8.30;;;;;;;;;;5088451;28;20048;-72
2021/12/21 04:01:45;;;;;;;21.38;9.18;;;;;;;;;;5093133;28;20162;-72
2021/12/21 04:04:11;;;;;;;17.60;8.50;;;;;;;;;;5092924;28;20044;-72
2021/12/21 04:06:38;;;;;;;15.25;7.80;;;;;;;;;;5091501;28;20470;-72
2021/12/21 04:09:04;;;;;;;11.73;7.72;;;;;;;;;;5092689;28;20040;-72
2021/12/21 04:11:31;;;;;;;14.48;8.50;;;;;;;;;;5092429;28;20047;-72
2021/12/21 04:13:58;;;;;;;11.40;6.78;;;;;;;;;;5074637;28;20048;-72
2021/12/21 04:16:24;;;;;;;13.15;7.40;;;;;;;;;;5074993;28;20032;-72
2021/12/21 04:18:50;;;;;;;12.48;7.32;;;;;;;;;;5071353;28;20037;-72
2021/12/21 04:21:16;;;;;;;13.00;7.38;;;;;;;;;;5055518;28;20048;-71
2021/12/21 04:23:42;;;;;;;15.10;7.85;;;;;;;;;;5072235;28;20045;-71
2021/12/21 04:26:10;;;;;;;11.23;7.15;;;;;;;;;;5071079;28;20040;-71
2021/12/21 04:28:36;;;;;;;13.60;7.88;;;;;;;;;;5064573;28;20075;-72
2021/12/21 04:31:03;;;;;;;11.82;6.57;;;;;;;;;;5092110;28;20101;-72
2021/12/21 04:33:29;;;;;;;15.10;7.93;;;;;;;;;;5074485;28;20392;-71
2021/12/21 04:35:55;;;;;;;12.55;7.38;;;;;;;;;;5075230;28;20485;-71
2021/12/21 04:38:22;;;;;;;12.77;7.10;;;;;;;;;;5079139;28;20044;-71
2021/12/21 04:40:53;;;;;;;12.38;7.32;;;;;;;;;;5070803;28;20481;-72
2021/12/21 04:43:19;;;;;;;14.88;7.53;;;;;;;;;;5071472;28;20165;-72
2021/12/21 04:45:45;;;;;;;13.05;6.65;;;;;;;;;;5071908;28;20049;-72
2021/12/21 04:48:11;;;;;;;13.10;7.53;;;-1.40;99.90;;;;;;5054390;28;20044;-71
2021/12/21 04:50:37;;;;;;;11.10;6.35;;;1.00;99.90;;;;;;5072039;28;20049;-71
2021/12/21 04:53:03;;;;;;;13.02;6.85;;;;;;;;;;5071599;28;20040;-71
2021/12/21 04:55:29;;;;;;;9.60;5.97;;;-1.90;99.90;;;;;;5070315;28;20493;-71
2021/12/21 04:57:56;;;;;;;12.35;6.60;;;-1.70;99.90;;;;;;5071501;28;20051;-71
2021/12/21 05:00:22;;;;;;;13.48;6.97;;;-1.90;99.90;;;;;;5080007;28;20036;-71
2021/12/21 05:02:47;;;;;;;14.57;7.75;;;-1.80;99.90;;;;;;5090412;28;20515;-71
2021/12/21 05:05:13;;;;;;;14.10;6.60;;;-1.60;99.90;;;;;;5091418;28;20504;-70
2021/12/21 05:07:41;;;;;;;10.95;6.57;;;-1.70;99.90;;;;;;5085285;28;20469;-70
2021/12/21 05:10:09;;;;;;;13.35;6.70;;;-1.70;99.90;;;;;;5087484;28;20388;-70
2021/12/21 05:12:38;;;;;;;10.93;6.78;;;-1.70;99.90;;;;;;5105137;28;20397;-70
2021/12/21 05:15:05;;;;;;;12.55;7.65;;;-1.40;99.90;;;;;;5070252;28;20111;-71
2021/12/21 05:17:31;;;;;;;10.90;6.57;;;-1.60;99.90;;;;;;5073959;28;20481;-70
2021/12/21 05:19:57;;;;;;;11.52;6.60;;;-1.80;99.90;;;;;;5070996;28;20039;-70
2021/12/21 05:22:23;;;;;;;13.13;7.15;;;-1.50;99.90;;;;;;5070147;28;20045;-70
2021/12/21 05:24:50;;;;;;;11.70;7.18;;;-1.50;99.90;;;;;;5087821;28;20087;-70
2021/12/21 05:27:16;;;;;;;12.65;6.85;;;-1.70;99.90;;;;;;5071245;28;20466;-70
2021/12/21 05:29:42;;;;;;;13.65;8.05;;;-1.80;99.90;;;;;;5070279;28;20060;-69
2021/12/21 05:32:08;;;;;;;15.00;7.85;;;-1.70;99.90;;;;;;5087698;28;20052;-69
2021/12/21 05:34:35;;;;;;;15.38;7.75;;;;;;;;;;5070936;28;20044;-70
2021/12/21 05:37:05;;;;;;;14.00;8.50;;;;;;;;;;5087803;28;20036;-70
2021/12/21 05:39:40;;;;;;;14.15;7.85;;;-2.00;99.90;;;;;;5087483;28;20036;-70
2021/12/21 05:42:06;;;;;;;14.73;9.15;;;-1.80;99.90;;;;;;5054261;28;20048;-70
2021/12/21 05:44:32;;;;;;;13.93;8.27;;;;;;;;;;5069825;28;20523;-70
2021/12/21 05:46:58;;;;;;;13.70;8.73;;;-1.90;99.90;;;;;;5101650;28;20093;-70
2021/12/21 05:49:24;;;;;;;14.32;8.23;;;-1.50;99.90;;;;;;5074102;28;20493;-70
2021/12/21 05:51:50;;;;;;;13.40;7.72;;;-1.50;99.90;;;;;;5089730;28;20040;-70
2021/12/21 05:54:18;;;;;;;14.57;8.02;;;-1.40;99.90;;;;;;5073755;28;20047;-70
2021/12/21 05:56:44;;;;;;;16.42;8.98;;;-1.80;99.90;;;;;;5091007;28;20046;-70
2021/12/21 05:59:10;;;;;;;18.25;9.15;;;-1.80;99.90;;;;;;5088343;28;20395;-70
2021/12/21 06:01:37;;;;;;;15.10;8.82;;;-1.70;99.90;;;;;;5053765;28;20039;-70
2021/12/21 06:04:03;;;;;;;14.27;9.38;;;-1.70;99.90;;;;;;5070495;28;20481;-70
2021/12/21 06:06:32;;;;;;;15.40;8.68;;;-1.70;99.90;;;;;;5069626;28;20044;-70
2021/12/21 06:09:00;;;;;;;15.88;9.10;;;-1.40;99.90;;;;;;5104157;28;20037;-71
2021/12/21 06:11:26;;;;;;;16.40;9.20;;;-1.60;99.90;;;;;;5069806;28;20137;-71
2021/12/21 06:27:08;;;;;;;18.05;10.55;;;-1.90;99.90;;;;;;5104943;28;20045;-72
2021/12/21 06:29:34;;;;;;;20.20;11.23;;;-1.90;99.90;;;;;;5071952;28;20092;-71
2021/12/21 06:32:00;;;;;;;17.98;10.23;;;-1.60;99.90;;;;;;5057690;28;20104;-72
2021/12/21 06:34:25;;;;;;;16.70;10.43;;;-1.50;99.90;;;;;;5073196;28;20163;-71
2021/12/21 06:36:51;;;;;;;16.23;10.02;;;-1.50;99.90;;;;;;5074180;28;20146;-71
2021/12/21 06:39:18;;;;;;;17.00;9.52;;;;;;;;;;5057122;28;20120;-71
2021/12/21 06:41:44;;;;;;;17.08;10.18;;;-1.70;99.90;;;;;;5067688;28;20047;-71
2021/12/21 06:44:13;;;;;;;21.25;10.60;;;-2.00;99.90;;;;;;5073919;28;20049;-71
2021/12/21 06:52:10;;;;;;;16.10;10.68;;;-1.80;99.90;;;;;;5073532;28;20055;-72
2021/12/21 06:54:37;;;;;;;17.10;10.35;;;;;;;;;;5072717;28;20045;-71
2021/12/21 06:57:03;;;;;;;14.98;10.45;;;-2.00;99.90;;;;;;5076083;28;20047;-71
2021/12/21 06:59:28;;;;;;;17.95;12.15;;;-2.00;99.90;;;;;;5056786;28;20041;-71
2021/12/21 07:01:54;;;;;;;17.63;10.20;;;-1.70;99.90;;;;;;5072864;28;20032;-71
2021/12/21 07:04:20;;;;;;;16.60;10.90;;;-1.90;99.90;;;;;;5073832;28;20055;-71
2021/12/21 07:06:46;;;;;;;18.27;11.07;;;-1.80;99.90;;;;;;5073303;28;20079;-71
2021/12/21 07:11:44;;;;;;;23.50;11.90;;;-1.90;99.90;;;;;;5092470;28;20066;-72
2021/12/21 07:19:51;;;;;;;18.48;11.52;;;-1.70;99.90;;;;;;5073110;28;20110;-72
2021/12/21 07:22:17;;;;;;;24.60;13.15;;;;;;;;;;5078911;28;20040;-71
2021/12/21 07:24:44;;;;;;;19.92;11.38;;;-1.90;99.90;;;;;;5093441;28;20108;-71
2021/12/21 07:27:10;;;;;;;22.80;12.68;;;-1.80;99.90;;;;;;5093622;28;20048;-71
2021/12/21 07:29:36;;;;;;;21.35;13.80;;;-1.80;99.90;;;;;;5075520;28;20052;-70
2021/12/21 07:32:02;;;;;;;22.40;13.25;;;-1.90;99.90;;;;;;5076066;28;20042;-71
2021/12/21 07:34:28;;;;;;;21.58;12.60;;;-1.80;99.90;;;;;;5093234;28;20044;-71
2021/12/21 07:36:53;;;;;;;23.95;14.93;;;-1.70;99.90;;;;;;5074866;28;20043;-71
2021/12/21 07:39:19;;;;;;;22.73;13.82;;;-1.90;99.90;;;;;;5093120;28;20048;-72
2021/12/21 07:41:45;;;;;;;23.45;13.45;;;-1.60;99.90;;;;;;5075459;28;20032;-72
2021/12/21 07:44:11;;;;;;;23.17;13.65;;;-2.00;99.90;;;;;;5072177;28;20036;-71
2021/12/21 07:46:40;;;;;;;22.48;12.88;;;-2.00;99.90;;;;;;5077031;28;20044;-73
2021/12/21 07:49:06;;;;;;;20.77;12.70;;;-1.60;99.90;;;;;;5092856;28;20048;-72
2021/12/21 07:51:32;;;;;;;18.15;11.18;;;-2.30;99.90;;;;;;5091256;28;20123;-72
2021/12/21 07:53:58;;;;;;;19.08;12.02;;;-2.20;99.90;;;;;;5075825;28;20040;-72
2021/12/21 07:56:23;;;;;;;19.77;11.68;;;-1.90;99.90;;;;;;5091912;28;20073;-71
2021/12/21 07:58:49;;;;;;;19.83;11.45;;;-2.10;99.90;;;;;;5092162;28;20039;-72
2021/12/21 08:01:15;;;;;;;20.58;12.30;;;-1.90;99.90;;;;;;5092703;28;20046;-72
2021/12/21 08:03:41;;;;;;;21.42;10.30;;;;;;;;;;5092803;28;20044;-72
2021/12/21 08:06:08;;;;;;;18.63;11.75;;;-1.90;99.90;;;;;;5092072;28;20118;-71
2021/12/21 08:08:39;;;;;;;25.40;13.85;;;-1.90;99.90;;;;;;5092199;28;20040;-72
2021/12/21 08:13:49;;;;;;;18.33;12.23;;;-1.90;99.90;;;;;;5092412;28;20054;-71
2021/12/21 08:16:15;;;;;;;21.63;12.70;;;-1.80;99.90;;;;;;5075522;28;20050;-71
2021/12/21 08:18:41;;;;;;;22.70;13.43;;;;;;;;;;5091686;28;20040;-72
2021/12/21 08:21:07;;;;;;;20.80;12.73;;;-1.80;99.90;;;;;;5075007;28;20362;-71
2021/12/21 08:23:33;;;;;;;20.10;11.60;;;-1.80;99.90;;;;;;5072094;28;20036;-72
2021/12/21 08:25:59;;;;;;;17.23;12.60;;;-1.80;99.90;;;;;;5083587;28;20174;-72
2021/12/21 08:28:25;;;;;;;20.60;11.73;;;-1.60;99.90;;;;;;5091841;28;20056;-71
2021/12/21 08:30:51;;;;;;;15.80;10.10;;;-1.70;99.90;;;;;;5075276;28;20549;-71
2021/12/21 08:33:17;;;;;;;17.23;10.05;;;-1.60;99.90;;;;;;5074403;28;20040;-71
2021/12/21 08:35:44;;;;;;;15.63;10.77;;;-0.90;99.90;;;;;;5092139;28;20044;-70
2021/12/21 08:38:14;;;;;;;17.70;10.38;;;-1.50;99.90;;;;;;5090432;28;20044;-70
2021/12/21 08:40:42;;;;;;;18.58;10.73;;;-1.70;99.90;;;;;;5091493;28;20118;-71
2021/12/21 08:43:14;;;;;;;18.80;11.38;;;-1.40;99.90;;;;;;5091820;28;20040;-71
2021/12/21 08:45:42;;;;;;;21.50;12.48;;;-1.60;99.90;;;;;;5092013;28;20139;-71
2021/12/21 08:48:09;;;;;;;19.00;12.02;;;-1.50;99.90;;;;;;5082605;28;20123;-71
2021/12/21 08:50:35;;;;;;;20.38;13.07;;;-1.60;99.90;;;;;;5082033;28;20397;-70
2021/12/21 08:53:01;;;;;;;24.45;15.35;;;-1.40;99.90;;;;;;5071343;28;20362;-71
2021/12/21 08:55:27;;;;;;;23.42;14.27;;;-1.50;99.90;;;;;;5089291;28;20101;-71
2021/12/21 08:57:53;;;;;;;23.88;13.75;;;-1.20;99.90;;;;;;5074188;28;20392;-71
2021/12/21 09:00:19;;;;;;;26.40;14.55;;;-1.20;99.90;;;;;;5079598;28;20044;-71
2021/12/21 09:02:45;;;;;;;22.17;13.90;;;-1.20;99.90;;;;;;5067741;28;20038;-70
2021/12/21 09:05:15;;;;;;;21.85;13.73;;;-1.40;99.90;;;;;;5091675;28;20048;-71
2021/12/21 09:07:43;;;;;;;24.00;16.08;;;-1.10;99.90;;;;;;5090371;28;20039;-70
2021/12/21 09:10:11;;;;;;;25.38;14.57;;;-1.00;99.90;;;;;;5091346;28;20051;-71
2021/12/21 09:12:37;;;;;;;17.67;13.27;;;-1.10;99.90;;;;;;5090821;28;20047;-70
2021/12/21 09:15:05;;;;;;;22.52;14.65;;;-1.00;99.90;;;;;;5073031;28;20032;-70
2021/12/21 09:17:31;;;;;;;25.02;13.52;;;-1.00;99.90;;;;;;5090385;28;20070;-70
2021/12/21 09:19:57;;;;;;;22.17;14.00;;;-0.90;99.90;;;;;;5091188;28;20072;-70
2021/12/21 09:22:23;;;;;;;22.05;14.35;;;-0.90;99.90;;;;;;5086654;28;20059;-70
2021/12/21 09:24:49;;;;;;;21.02;13.10;;;-0.70;99.90;;;;;;5088760;28;20405;-70
2021/12/21 09:27:16;;;;;;;17.17;12.00;;;-0.50;99.90;;;;;;5071414;28;20462;-72
2021/12/21 09:29:42;;;;;;;21.02;12.82;;;-0.50;99.90;;;;;;5071046;28;20068;-75
2021/12/21 09:32:13;;;;;;;18.42;13.25;;;-0.20;99.90;;;;;;5088450;28;20040;-71
2021/12/21 09:34:41;;;;;;;21.02;12.75;;;-0.30;99.90;;;;;;5071932;28;20112;-70
2021/12/21 09:37:14;;;;;;;18.40;11.73;;;-0.10;99.90;;;;;;5087984;28;20039;-70
2021/12/21 09:39:43;;;;;;;18.88;12.18;;;-0.20;99.90;;;;;;5086388;28;20039;-70
2021/12/21 09:42:15;;;;;;;20.05;11.45;;;-0.10;99.90;;;;;;5073722;28;20042;-74
2021/12/21 09:44:41;;;;;;;19.17;11.90;;;;;;;;;;5088189;28;20051;-76
2021/12/21 09:47:09;;;;;;;20.98;13.07;;;0.20;99.90;;;;;;5088140;28;20048;-70
2021/12/21 09:49:36;;;;;;;17.60;11.70;;;-0.30;99.90;;;;;;5083943;28;20494;-71
2021/12/21 09:52:03;;;;;;;18.13;11.50;;;0.10;99.90;;;;;;5088067;28;20040;-71
2021/12/21 09:54:32;;;;;;;17.67;11.52;;;0.30;99.90;;;;;;5088057;28;20047;-71
2021/12/21 09:56:58;;;;;;;20.75;11.20;;;0.60;99.90;;;;;;5086379;28;20043;-71
2021/12/21 09:59:25;;;;;;;14.00;9.45;;;0.70;99.90;;;;;;5088510;28;20044;-68
2021/12/21 10:01:51;;;;;;;14.73;10.18;;;0.70;99.90;;;;;;5071593;28;20062;-71
2021/12/21 10:04:18;;;;;;;16.50;10.48;;;;;;;;;;5088681;28;20040;-70
2021/12/21 10:06:49;;;;;;;15.48;9.05;;;0.70;99.90;;;;;;5093098;28;20052;-71
2021/12/21 10:09:18;;;;;;;14.65;8.77;;;0.70;99.90;;;;;;5092302;28;20048;-71
2021/12/21 10:11:48;;;;;;;13.48;9.15;;;0.60;99.90;;;;;;5092015;28;20048;-70
2021/12/21 10:14:16;;;;;;;15.75;9.07;;;0.90;99.90;;;;;;5072202;28;20047;-72
2021/12/21 10:16:43;;;;;;;16.27;8.75;;;1.10;99.90;;;;;;5092720;28;20139;-72
2021/12/21 10:19:19;;;;;;;13.98;8.80;;;0.80;99.90;;;;;;5091232;28;20048;-71
2021/12/21 10:21:45;;;;;;;14.77;8.82;;;0.90;99.90;;;;;;5092258;28;20039;-70
2021/12/21 10:24:25;;;;;;;16.65;8.20;;;1.20;99.90;;;;;;5075575;28;20542;-70
2021/12/21 10:26:53;;;;;;;18.88;9.02;;;1.30;99.90;;;;;;5092341;28;20085;-72
2021/12/21 10:29:19;;;;;;;17.45;8.73;;;;;;;;;;5091591;28;20059;-71
2021/12/21 10:31:47;;;;;;;15.40;7.68;;;1.40;99.90;;;;;;5091684;28;20044;-71
2021/12/21 10:34:17;;;;;;;18.25;8.10;;;1.40;99.90;;;;;;5091798;28;20114;-70
2021/12/21 10:36:49;;;;;;;12.32;7.85;;;1.30;99.90;;;;;;5091972;28;20048;-71
2021/12/21 10:39:24;;;;;;;13.45;7.55;;;1.50;99.90;;;;;;5089551;28;20044;-71
2021/12/21 10:41:52;;;;;;;17.17;8.00;;;1.50;99.90;;;;;;5075463;28;20036;-72
2021/12/21 10:44:19;;;;;;;13.95;6.95;;;1.80;99.90;;;;;;5091550;28;20048;-72
2021/12/21 10:46:53;;;;;;;16.02;6.93;;;1.60;99.90;;;;;;5091334;28;20536;-72
2021/12/21 10:49:26;;;;;;;15.00;7.38;;;1.80;99.90;;;;;;5091937;28;20055;-71
2021/12/21 10:52:05;;;;;;;13.10;6.93;;;1.80;99.90;;;;;;5091752;28;20048;-71
2021/12/21 10:54:33;;;;;;;14.40;7.13;;;1.90;99.90;;;;;;5091412;28;20068;-72
2021/12/21 10:57:02;;;;;;;13.90;6.45;;;2.00;99.90;;;;;;5091615;28;20040;-72
2021/12/21 10:59:32;;;;;;;15.90;6.55;;;1.90;99.90;;;;;;5091453;28;20785;-72
2021/12/21 11:02:10;;;;;;;16.25;6.93;;;1.90;99.90;;;;;;5080128;28;20173;-72
2021/12/21 11:04:39;;;;;;;12.15;7.50;;;2.10;99.90;;;;;;5091372;28;20477;-72
2021/12/21 11:07:27;;;;;;;10.45;5.88;;;2.10;99.90;;;;;;5090711;28;20043;-72
2021/12/21 11:09:59;;;;;;;12.10;6.45;;;2.30;99.90;;;;;;5090969;28;20449;-73
2021/12/21 11:12:27;;;;;;;15.63;6.95;;;2.20;99.90;;;;;;5091214;28;20389;-75
2021/12/21 11:14:56;;;;;;;11.27;6.75;;;2.40;99.90;;;;;;5074620;28;20100;-79
2021/12/21 11:17:22;;;;;;;10.23;5.47;;;2.20;99.90;;;;;;5092105;28;20070;-72
2021/12/21 11:19:51;;;;;;;14.13;6.82;;;2.30;99.90;;;;;;5090204;28;20052;-72
2021/12/21 11:22:20;;;;;;;11.93;5.65;;;2.50;99.90;;;;;;5072364;28;20044;-74
2021/12/21 11:24:47;;;;;;;12.32;5.95;;;2.40;99.90;;;;;;5089859;28;20131;-71
2021/12/21 11:27:15;;;;;;;12.35;5.18;;;2.70;99.90;;;;;;5086435;28;20040;-72
2021/12/21 11:29:41;;;;;;;13.38;5.90;;;2.60;99.90;;;;;;5089177;28;20051;-72
2021/12/21 11:32:08;;;;;;;11.90;5.10;;;2.40;99.90;;;;;;5078324;28;20067;-70
2021/12/21 11:34:36;;;;;;;12.80;6.30;;;;;;;;;;5105657;27;20541;-71
2021/12/21 11:37:21;;;;;;;15.38;6.20;;;2.50;99.90;;;;;;5123850;27;20074;-70
2021/12/21 11:39:47;;;;;;;11.13;5.18;;;2.60;99.90;;;;;;5089024;28;20400;-71
2021/12/21 11:42:43;;;;;;;13.05;5.97;;;2.50;99.90;;;;;;5084637;28;20040;-71
2021/12/21 11:45:17;;;;;;;8.60;4.63;;;3.10;99.90;;;;;;5069688;28;20048;-72
2021/12/21 11:47:54;;;;;;;16.48;6.60;;;2.80;99.90;;;;;;5072840;28;20044;-72
2021/12/21 11:50:20;;;;;;;10.73;4.97;;;3.30;99.90;;;;;;5091258;28;20170;-71
2021/12/21 11:52:50;;;;;;;14.00;5.05;;;2.80;99.90;;;;;;5082635;28;20122;-71
2021/12/21 11:55:18;;;;;;;11.27;5.03;;;3.20;99.90;;;;;;5092615;28;20507;-71
2021/12/21 11:57:49;;;;;;;10.45;4.95;;;2.90;99.90;;;;;;5091512;28;20086;-69
2021/12/21 12:00:23;;;;;;;9.32;4.45;;;3.40;99.90;;;;;;5092722;28;20044;-70
2021/12/21 12:02:51;;;;;;;9.63;4.65;;;3.10;99.90;;;;;;5092904;28;20047;-69
2021/12/21 12:05:35;;;;;;;12.30;5.82;;;3.60;99.90;;;;;;5092158;28;20059;-71
2021/12/21 12:08:03;;;;;;;15.40;6.82;;;3.30;99.90;;;;;;5076118;28;20054;-68
2021/12/21 12:10:28;;;;;;;10.68;5.05;;;3.30;99.90;;;;;;5091971;28;20148;-72
2021/12/21 12:12:54;;;;;;;13.90;5.13;;;3.50;99.90;;;;;;5092560;28;20567;-70
2021/12/21 12:15:20;;;;;;;12.57;4.90;;;3.40;99.90;;;;;;5075514;28;20044;-74
2021/12/21 12:17:49;;;;;;;10.13;4.47;;;3.60;99.90;;;;;;5091774;28;20393;-73
2021/12/21 12:20:25;;;;;;;9.88;4.70;;;3.20;99.90;;;;;;5092364;28;20083;-71
2021/12/21 12:23:03;;;;;;;10.27;4.45;;;3.40;99.90;;;;;;5092011;28;20043;-68
2021/12/21 12:25:29;;;;;;;10.38;4.80;;;3.30;99.90;;;;;;5087339;28;20134;-67
2021/12/21 12:27:56;;;;;;;8.82;5.05;;;;;;;;;;5091056;28;20130;-68
2021/12/21 12:30:27;;;;;;;8.10;3.90;;;3.50;99.90;;;;;;5092545;28;20101;-68
2021/12/21 12:33:06;;;;;;;11.40;5.13;;;3.50;99.90;;;;;;5091484;28;20049;-68
2021/12/21 12:35:34;;;;;;;12.23;5.55;;;3.60;99.90;;;;;;5072120;28;20091;-68
2021/12/21 12:38:18;;;;;;;9.40;4.75;;;3.70;99.90;;;;;;5089685;28;20083;-67
2021/12/21 12:40:54;;;;;;;11.50;4.18;;;3.30;99.90;;;;;;5092365;28;20432;-67
2021/12/21 12:43:29;;;;;;;10.75;4.10;;;3.80;99.90;;;;;;5091787;28;20032;-67
2021/12/21 12:46:04;;;;;;;12.10;4.53;;;4.00;99.90;;;;;;5090890;28;20040;-67
2021/12/21 12:48:47;;;;;;;8.45;3.88;;;3.90;99.90;;;;;;5091869;28;20040;-67
2021/12/21 12:51:33;;;;;;;10.23;3.97;;;3.80;99.90;;;;;;5088603;28;20123;-69
2021/12/21 12:53:59;;;;;;;13.10;3.90;;;3.90;99.90;;;;;;5090631;28;20446;-71
2021/12/21 12:56:25;;;;;;;9.80;3.67;;;4.00;99.90;;;;;;5125966;27;20040;-70
2021/12/21 12:58:56;;;;;;;11.00;5.38;;;3.90;99.90;;;;;;5091841;28;20075;-70
2021/12/21 13:01:25;;;;;;;10.63;4.25;;;4.00;99.90;;;;;;5091201;28;20046;-69
2021/12/21 13:03:57;;;;;;;11.95;5.53;;;3.90;99.90;;;;;;5091462;28;20115;-70
2021/12/21 13:06:29;;;;;;;8.10;3.85;;;3.80;99.90;;;;;;5073242;28;20085;-70
2021/12/21 13:08:55;;;;;;;12.93;4.82;;;3.80;99.90;;;;;;5090277;28;20044;-69
2021/12/21 13:11:25;;;;;;;8.15;3.72;;;3.90;99.90;;;;;;5091263;28;20039;-69
2021/12/21 13:13:55;;;;;;;10.73;3.97;;;3.90;99.90;;;;;;5089175;28;20040;-70
2021/12/21 13:16:24;;;;;;;10.07;4.10;;;3.80;99.90;;;;;;5087899;28;20126;-70
2021/12/21 13:18:55;;;;;;;11.20;5.22;;;3.80;99.90;;;;;;5074168;28;20389;-70
2021/12/21 13:21:26;;;;;;;13.90;4.80;;;4.00;99.90;;;;;;5090781;28;20135;-70
2021/12/21 13:24:04;;;;;;;13.77;5.60;;;4.00;99.90;;;;;;5091174;28;20052;-70
2021/12/21 13:26:39;;;;;;;11.52;5.55;;;3.90;99.90;;;;;;5074248;28;20044;-70
2021/12/21 13:29:10;;;;;;;10.63;4.65;;;3.90;99.90;;;;;;5089991;28;20554;-70
2021/12/21 13:31:36;;;;;;;10.65;4.30;;;;;;;;;;5091104;28;20032;-70
2021/12/21 13:34:04;;;;;;;11.30;4.20;;;3.80;99.90;;;;;;5091216;28;20098;-70
2021/12/21 13:36:43;;;;;;;9.77;4.53;;;3.90;99.90;;;;;;5073277;28;20044;-70
2021/12/21 13:39:23;;;;;;;9.45;4.25;;;3.80;99.90;;;;;;5090264;28;20079;-70
2021/12/21 13:41:54;;;;;;;10.90;5.20;;;3.70;99.90;;;;;;5090300;28;20071;-70
2021/12/21 13:44:36;;;;;;;9.68;4.57;;;3.70;99.90;;;;;;5091111;28;20048;-70
2021/12/21 13:47:26;;;;;;;12.18;4.10;;;3.70;99.90;;;;;;5090721;28;20044;-70
2021/12/21 13:50:09;;;;;;;8.38;4.30;;;3.60;99.90;;;;;;5090211;28;20036;-70
2021/12/21 13:52:46;;;;;;;13.43;4.25;;;3.60;99.90;;;;;;5091075;28;20463;-70
2021/12/21 13:55:36;;;;;;;12.07;4.50;;;3.60;99.90;;;;;;5090746;28;20115;-70
2021/12/21 13:58:08;;;;;;;10.15;4.25;;;3.60;99.90;;;;;;5091145;28;20117;-70
2021/12/21 14:00:54;;;;;;;13.10;5.28;;;3.40;99.90;;;;;;5073883;28;20040;-70
2021/12/21 14:05:57;;;;;;;12.00;4.68;;;3.50;99.90;;;;;;5090679;28;20051;-70
2021/12/21 14:08:23;;;;;;;13.02;4.70;;;3.60;99.90;;;;;;5090995;28;20048;-70
2021/12/21 14:10:54;;;;;;;9.80;4.53;;;3.60;99.90;;;;;;5090143;28;20508;-70
2021/12/21 14:13:29;;;;;;;13.65;4.78;;;3.70;99.90;;;;;;5090715;28;20044;-70